Time;durP1;ratioP1;P1;durP2;ratioP2;P2;SDS_P1;SDS_P2;PMS_P1;PMS_P2;Temp;Humidity;BMP_temperature;BMP_pressure;BME280_temperature;BME280_humidity;BME280_pressure;Samples;Min_cycle;Max_cycle;Signal;HPM_P1;HPM_P2
2022/08/21 00:01:06;;;;;;;;;;;;;;;19.26;68.06;100360.06;5036205;28;20387;-80
2022/08/21 00:03:32;;;;;;;4.20;1.77;;;;;;;19.10;68.96;100368.66;5017582;28;19913;-80
2022/08/21 00:05:58;;;;;;;4.15;1.73;;;;;;;18.76;70.68;100364.50;5017619;28;20033;-80
2022/08/21 00:08:23;;;;;;;5.85;1.70;;;;;;;18.93;70.46;100356.34;5035562;28;20036;-80
2022/08/21 00:10:50;;;;;;;4.07;1.70;;;;;;;19.10;69.81;100348.53;5035257;28;20037;-80
2022/08/21 00:13:16;;;;;;;6.57;1.88;;;;;;;18.97;70.53;100348.06;5035078;28;20037;-80
2022/08/21 00:15:41;;;;;;;6.10;1.92;;;;;;;18.61;72.05;100338.75;5035084;28;20094;-80
2022/08/21 00:18:08;;;;;;;6.60;2.28;;;;;;;18.61;72.10;100344.28;5017597;28;20452;-80
2022/08/21 00:20:35;;;;;;;4.03;2.00;;;;;;;18.56;71.99;100337.16;5035502;28;20030;-80
2022/08/21 00:23:01;;;;;;;4.35;1.98;;;;;;;18.50;72.43;100335.16;5035159;28;20069;-80
2022/08/21 00:25:27;;;;;;;4.32;1.73;;;;;;;18.51;72.73;100328.47;5035220;28;20038;-80
2022/08/21 00:27:53;;;;;;;6.30;2.22;;;;;;;18.30;73.03;100329.06;5035147;28;20036;-81
2022/08/21 00:30:21;;;;;;;4.70;2.10;;;;;;;18.22;73.42;100330.19;5035163;28;20142;-80
2022/08/21 00:32:46;;;;;;;6.45;2.30;;;;;;;18.46;72.52;100328.78;5034732;28;20039;-80
2022/08/21 00:35:14;;;;;;;4.88;1.58;;;;;;;18.55;72.26;100329.28;5034948;28;20029;-80
2022/08/21 00:37:40;;;;;;;7.05;2.67;;;;;;;18.66;71.85;100332.94;5034640;28;20045;-80
2022/08/21 00:40:10;;;;;;;5.53;2.28;;;;;;;18.58;72.17;100326.53;5035121;28;20032;-79
2022/08/21 00:42:35;;;;;;;5.80;2.25;;;;;;;18.44;72.44;100326.44;5016883;28;20025;-80
2022/08/21 00:45:02;;;;;;;6.40;2.13;;;;;;;18.47;72.38;100322.91;5016527;28;20042;-79
2022/08/21 00:47:27;;;;;;;5.32;2.30;;;;;;;18.50;72.67;100326.88;5034658;28;20025;-79
2022/08/21 00:49:52;;;;;;;5.13;2.10;;;;;;;18.31;73.15;100331.47;5034559;28;20041;-79
2022/08/21 00:52:20;;;;;;;;;;;;;;;18.24;73.08;100336.91;5033825;28;20440;-80
2022/08/21 00:54:48;;;;;;;6.00;2.33;;;;;;;18.20;72.48;100333.34;5034604;28;19916;-80
2022/08/21 00:57:18;;;;;;;4.78;2.10;;;;;;;18.13;73.13;100335.22;5016833;28;20032;-80
2022/08/21 00:59:49;;;;;;;6.10;1.98;;;;;;;18.05;73.15;100331.63;5034588;28;20033;-80
2022/08/21 01:02:15;;;;;;;4.88;2.20;;;;;;;17.94;73.94;100330.72;5034711;28;20040;-80
2022/08/21 01:04:40;;;;;;;4.07;2.13;;;;;;;17.66;75.20;100337.50;5034462;28;20440;-80
2022/08/21 01:07:06;;;;;;;;;;;;;;;17.77;74.98;100326.63;5034550;28;20034;-81
2022/08/21 01:09:32;;;;;;;3.63;1.95;;;;;;;17.78;74.99;100343.94;5034353;28;19912;-81
2022/08/21 01:11:58;;;;;;;;;;;;;;;17.95;74.69;100337.81;5034619;28;20029;-81
2022/08/21 01:14:24;;;;;;;6.25;2.35;;;;;;;17.92;74.73;100338.56;5034026;28;20000;-80
2022/08/21 01:16:50;;;;;;;;;;;;;;;17.81;74.98;100327.47;5034351;28;20079;-81
2022/08/21 01:19:18;;;;;;;6.72;2.53;;;;;;;17.60;75.81;100333.50;5033976;28;19933;-80
2022/08/21 01:21:43;;;;;;;4.65;2.20;;;;;;;17.50;76.50;100333.41;5016279;28;20035;-80
2022/08/21 01:24:09;;;;;;;;;;;;;;;17.46;77.21;100338.84;5034203;28;20100;-81
2022/08/21 01:26:35;;;;;;;4.85;2.20;;;;;;;17.49;77.12;100338.09;5015914;28;19913;-81
2022/08/21 01:29:15;;;;;;;7.72;2.83;;;;;;;17.43;77.70;100345.09;5015868;28;20045;-80
2022/08/21 01:31:41;;;;;;;7.65;2.97;;;;;;;17.43;78.04;100336.84;5033670;28;20036;-80
2022/08/21 01:34:07;;;;;;;;;;;;;;;17.25;78.68;100336.63;5034362;28;20033;-80
2022/08/21 01:36:33;;;;;;;5.73;2.67;;;;;;;17.13;79.52;100343.19;5033666;28;19916;-81
2022/08/21 01:38:59;;;;;;;5.53;2.33;;;;;;;17.16;79.75;100344.38;5033421;28;20103;-81
2022/08/21 01:41:24;;;;;;;;;;;;;;;17.01;80.11;100328.84;5033783;28;20060;-81
2022/08/21 01:43:49;;;;;;;7.70;2.60;;;;;;;16.94;80.42;100334.25;5033298;28;19919;-81
2022/08/21 01:46:14;;;;;;;;;;;;;;;16.88;80.67;100347.53;5033989;28;20052;-81
2022/08/21 01:48:41;;;;;;;6.22;2.38;;;;;;;16.82;80.98;100338.03;5033423;28;19924;-81
2022/08/21 01:51:06;;;;;;;4.47;2.22;;;;;;;16.76;81.50;100331.25;5033229;28;20022;-81
2022/08/21 01:53:35;;;;;;;;;;;;;;;16.66;82.07;100329.91;5016305;28;20049;-80
2022/08/21 01:56:01;;;;;;;4.80;2.45;;;;;;;16.87;81.18;100328.66;5033353;28;19923;-79
2022/08/21 01:58:27;;;;;;;11.85;2.53;;;;;;;16.88;80.42;100324.75;5033184;28;20113;-80
2022/08/21 02:00:52;;;;;;;;;;;;;;;16.96;79.37;100321.69;5033827;28;20108;-79
2022/08/21 02:03:17;;;;;;;6.28;2.33;;;;;;;16.77;80.61;100328.13;5032821;28;20003;-80
2022/08/21 02:05:42;;;;;;;;;;;;;;;16.62;80.83;100312.56;5033521;28;20033;-79
2022/08/21 02:08:08;;;;;;;4.53;2.47;;;;;;;16.90;79.37;100319.66;5015316;28;19947;-80
2022/08/21 02:10:33;;;;;;;;;;;;;;;16.95;78.88;100319.31;5033209;28;20260;-79
2022/08/21 02:13:00;;;;;;;4.22;2.13;;;;;;;16.85;79.19;100312.53;5032752;28;20352;-79
2022/08/21 02:15:26;;;;;;;5.13;2.20;;;;;;;16.92;79.17;100318.13;5032852;28;20499;-79
2022/08/21 02:17:52;;;;;;;;;;;;;;;16.88;79.06;100320.03;5033447;28;20034;-80
2022/08/21 02:20:21;;;;;;;;;;;;;;;16.88;78.98;100317.28;5015582;28;19916;-80
2022/08/21 02:22:46;;;;;;;;;;;;;;;16.89;78.25;100310.63;5015373;28;19913;-81
2022/08/21 02:25:11;;;;;;;;;;;;;;;16.76;78.88;100310.03;5033319;28;19962;-80
2022/08/21 02:27:38;;;;;;;;;;;;;;;16.63;79.45;100305.09;5033085;28;20356;-81
2022/08/21 02:30:04;;;;;;;;;;;;;;;16.67;79.08;100309.53;5033457;28;19913;-81
2022/08/21 02:32:29;;;;;;;;;;;;;;;16.91;78.26;100302.00;5033470;28;19920;-80
2022/08/21 02:34:54;;;;;;;;;;;;;;;16.87;78.13;100304.69;5015279;28;19913;-80
2022/08/21 02:37:20;;;;;;;;;;;;;;;16.85;78.31;100304.28;5033551;28;19924;-80
2022/08/21 02:39:45;;;;;;;;;;;;;;;16.81;78.54;100311.69;5033697;28;20352;-80
2022/08/21 02:42:11;;;;;;;;;;;;;;;16.72;79.35;100305.66;5034148;28;19960;-80
2022/08/21 02:44:36;;;;;;;;;;;;;;;16.68;79.57;100304.81;5033264;28;20403;-80
2022/08/21 02:47:01;;;;;;;;;;;;;;;16.57;80.44;100304.63;5033199;28;19928;-80
2022/08/21 02:49:26;;;;;;;;;;;;;;;16.66;80.14;100301.63;5033443;28;20294;-80
2022/08/21 02:51:52;;;;;;;;;;;;;;;16.60;80.75;100308.59;5032884;28;19913;-80
2022/08/21 02:54:17;;;;;;;;;;;;;;;16.52;81.01;100308.50;5032746;28;20347;-80
2022/08/21 02:56:42;;;;;;;;;;;;;;;16.45;81.41;100313.88;5033102;28;19919;-80
2022/08/21 02:59:07;;;;;;;;;;;;;;;16.46;81.27;100311.91;5032821;28;19919;-80
2022/08/21 03:01:32;;;;;;;;;;;;;;;16.42;81.04;100309.13;5032722;28;20007;-80
2022/08/21 03:03:58;;;;;;;;;;;;;;;16.38;81.15;100308.28;5033264;28;19913;-80
2022/08/21 03:06:24;;;;;;;;;;;;;;;16.31;81.45;100308.19;5032770;28;19920;-80
2022/08/21 03:08:50;;;;;;;;;;;;;;;16.21;81.82;100306.03;5032851;28;19913;-80
2022/08/21 03:11:15;;;;;;;;;;;;;;;16.19;82.19;100300.91;5033300;28;20032;-80
2022/08/21 03:13:41;;;;;;;;;;;;;;;16.19;82.09;100300.91;5032925;28;20022;-80
2022/08/21 03:16:07;;;;;;;;;;;;;;;16.14;82.59;100300.44;5035603;28;19920;-80
2022/08/21 03:18:32;;;;;;;;;;;;;;;16.18;82.12;100293.84;5036502;28;19917;-81
2022/08/21 03:20:57;;;;;;;;;;;;;;;16.13;82.16;100294.16;5036665;28;19963;-80
2022/08/21 03:23:22;;;;;;;;;;;;;;;16.13;82.28;100298.84;5036870;28;19919;-80
2022/08/21 03:25:48;;;;;;;;;;;;;;;16.17;82.20;100302.44;5036675;28;19917;-80
2022/08/21 03:28:14;;;;;;;;;;;;;;;16.15;82.30;100296.53;5036757;28;20007;-80
2022/08/21 03:30:43;;;;;;;;;;;;;;;16.14;82.48;100309.47;5036745;28;20008;-80
2022/08/21 03:33:09;;;;;;;;;;;;;;;16.11;81.96;100301.94;5036755;28;19953;-80
2022/08/21 03:35:35;;;;;;;;;;;;;;;16.21;82.17;100295.06;5036587;28;19920;-80
2022/08/21 03:38:00;;;;;;;;;;;;;;;16.24;81.19;100300.59;5036282;28;19917;-80
2022/08/21 03:40:25;;;;;;;;;;;;;;;16.29;81.15;100304.19;5036419;28;19949;-81
2022/08/21 03:42:51;;;;;;;;;;;;;;;16.25;81.34;100304.94;5036502;28;20000;-80
2022/08/21 03:45:17;;;;;;;;;;;;;;;16.02;81.85;100306.91;5036458;28;19979;-81
2022/08/21 03:47:59;;;;;;;;;;;;;;;16.35;80.41;100299.97;5036438;28;20020;-81
2022/08/21 03:50:25;;;;;;;;;;;;;;;16.41;80.52;100307.53;5036173;28;19920;-81
2022/08/21 03:52:50;;;;;;;;;;;;;;;16.11;81.45;100299.19;5036390;28;19917;-81
2022/08/21 03:55:16;;;;;;;;;;;;;;;16.00;82.16;100306.47;5036567;28;19913;-81
2022/08/21 03:57:41;;;;;;;;;;;;;;;15.92;82.44;100300.06;5036398;28;19916;-80
2022/08/21 04:00:09;;;;;;;;;;;;;;;15.90;82.50;100299.63;5036168;28;19974;-80
2022/08/21 04:02:35;;;;;;;;;;;;;;;15.94;82.47;100302.44;5018303;28;19913;-79
2022/08/21 04:05:00;;;;;;;;;;;;;;;15.86;82.12;100300.75;5035606;28;19928;-80
2022/08/21 04:07:26;;;;;;;;;;;;;;;15.98;82.12;100316.25;5035830;28;19913;-79
2022/08/21 04:09:51;;;;;;;;;;;;;;;15.93;81.45;100309.88;5035524;28;19913;-80
2022/08/21 04:12:16;;;;;;;;;;;;;;;15.91;81.55;100320.44;5035795;28;19924;-81
2022/08/21 04:14:41;;;;;;;;;;;;;;;15.94;81.55;100307.94;5036008;28;19924;-81
2022/08/21 04:17:06;;;;;;;;;;;;;;;16.00;81.61;100311.19;5035825;28;19913;-81
2022/08/21 04:19:32;;;;;;;;;;;;;;;15.92;81.72;100313.00;5035868;28;19921;-81
2022/08/21 04:21:57;;;;;;;;;;;;;;;15.90;81.46;100315.31;5035454;28;19920;-81
2022/08/21 04:24:22;;;;;;;;;;;;;;;15.87;81.31;100316.84;5035278;28;20409;-80
2022/08/21 04:26:47;;;;;;;;;;;;;;;15.86;81.66;100311.72;5035284;28;20379;-80
2022/08/21 04:29:13;;;;;;;;;;;;;;;15.93;81.04;100314.59;5035486;28;19913;-79
2022/08/21 04:31:38;;;;;;;;;;;;;;;15.83;81.39;100316.00;5035475;28;19913;-79
2022/08/21 04:34:04;;;;;;;;;;;;;;;15.85;81.41;100319.16;5035700;28;19920;-83
2022/08/21 04:36:30;;;;;;;;;;;;;;;15.93;81.01;100318.13;5035610;28;19963;-83
2022/08/21 04:38:55;;;;;;;;;;;;;;;15.88;80.95;100312.16;5035281;28;19916;-82
2022/08/21 04:41:20;;;;;;;;;;;;;;;15.79;81.09;100315.16;5035901;28;19917;-82
2022/08/21 04:43:46;;;;;;;;;;;;;;;15.86;80.98;100319.97;5017527;28;19975;-82
2022/08/21 04:46:11;;;;;;;;;;;;;;;15.84;80.73;100314.84;5035044;28;19924;-82
2022/08/21 04:48:36;;;;;;;;;;;;;;;15.84;81.07;100312.09;5035517;28;19924;-81
2022/08/21 04:51:19;;;;;;;;;;;;;;;15.87;80.69;100316.84;5035209;28;19927;-81
2022/08/21 04:53:48;;;;;;;;;;;;;;;15.88;80.78;100332.16;5034862;28;20020;-82
2022/08/21 04:56:25;;;;;;;;;;;;;;;15.80;81.23;100324.19;5034919;28;19917;-82
2022/08/21 04:58:52;;;;;;;;;;;;;;;15.67;81.89;100328.25;5034830;28;19967;-80
2022/08/21 05:01:19;;;;;;;;;;;;;;;15.62;82.23;100332.09;5034688;28;19948;-80
2022/08/21 05:03:45;;;;;;;;;;;;;;;15.52;82.61;100335.38;5034678;28;19935;-80
2022/08/21 05:06:12;;;;;;;;;;;;;;;15.54;82.68;100336.59;5034357;28;19917;-80
2022/08/21 05:08:39;;;;;;;;;;;;;;;15.48;83.36;100331.78;5034651;28;20335;-79
2022/08/21 05:11:04;;;;;;;;;;;;;;;15.46;83.16;100334.88;5034455;28;19940;-80
2022/08/21 05:13:30;;;;;;;;;;;;;;;15.45;83.60;100332.47;5034440;28;19964;-80
2022/08/21 05:15:55;;;;;;;;;;;;;;;15.49;83.83;100339.63;5034608;28;20383;-80
2022/08/21 05:18:20;;;;;;;;;;;;;;;15.57;83.40;100335.88;5034639;28;19963;-81
2022/08/21 05:20:46;;;;;;;;;;;;;;;15.49;83.94;100336.09;5034453;28;20013;-80
2022/08/21 05:23:12;;;;;;;;;;;;;;;15.42;84.03;100333.19;5016978;28;19995;-80
2022/08/21 05:25:37;;;;;;;;;;;;;;;15.40;84.64;100335.50;5034749;28;19913;-81
2022/08/21 05:28:03;;;;;;;;;;;;;;;15.41;84.59;100332.41;5034435;28;19944;-80
2022/08/21 05:30:29;;;;;;;;;;;;;;;15.47;84.28;100339.22;5034063;28;19917;-79
2022/08/21 05:32:58;;;;;;;;;;;;;;;15.72;83.55;100341.66;5034322;28;20275;-79
2022/08/21 05:35:23;;;;;;;;;;;;;;;15.84;83.23;100334.06;5034486;28;20123;-79
2022/08/21 05:37:48;;;;;;;;;;;;;;;16.00;81.84;100338.66;5033338;28;20004;-79
2022/08/21 05:40:14;;;;;;;;;;;;;;;15.95;82.17;100339.72;5033905;28;20236;-79
2022/08/21 05:42:39;;;;;;;;;;;;;;;16.21;81.43;100341.75;5033905;28;20042;-78
2022/08/21 05:45:04;;;;;;;;;;;;;;;16.14;81.58;100339.69;5033977;28;20440;-79
2022/08/21 05:47:30;;;;;;;;;;;;;;;16.18;81.30;100342.50;5034041;28;20380;-79
2022/08/21 05:49:55;;;;;;;;;;;;;;;16.13;81.45;100345.56;5016033;28;20007;-77
2022/08/21 05:52:21;;;;;;;;;;;;;;;16.01;81.30;100337.50;5033659;28;20004;-77
2022/08/21 05:54:46;;;;;;;;;;;;;;;15.95;81.46;100342.47;5015919;28;19913;-77
2022/08/21 05:57:11;;;;;;;;;;;;;;;16.05;81.12;100341.09;5033446;28;19963;-77
2022/08/21 05:59:37;;;;;;;;;;;;;;;16.19;81.81;100339.38;5033414;28;20235;-77
2022/08/21 06:02:03;;;;;;;;;;;;;;;16.35;80.19;100331.00;5033438;28;19959;-77
2022/08/21 06:04:28;;;;;;;;;;;;;;;16.45;80.64;100330.34;5033348;28;19959;-77
2022/08/21 06:06:54;;;;;;;;;;;;;;;16.50;79.52;100326.53;5033368;28;19932;-77
2022/08/21 06:09:19;;;;;;;;;;;;;;;16.55;78.63;100324.25;5033219;28;19967;-78
2022/08/21 06:11:44;;;;;;;;;;;;;;;16.51;78.64;100326.16;5033543;28;19920;-77
2022/08/21 06:14:09;;;;;;;;;;;;;;;16.41;78.86;100331.47;5033106;28;20342;-78
2022/08/21 06:16:35;;;;;;;;;;;;;;;16.35;78.56;100328.25;5033103;28;19913;-78
2022/08/21 06:19:00;;;;;;;;;;;;;;;16.37;78.27;100325.13;5032992;28;19927;-78
2022/08/21 06:21:25;;;;;;;;;;;;;;;16.32;78.25;100325.44;5033356;28;20314;-78
2022/08/21 06:23:50;;;;;;;;;;;;;;;16.32;78.31;100328.19;5032851;28;19920;-78
2022/08/21 06:26:16;;;;;;;;;;;;;;;16.49;78.13;100327.69;5033081;28;19920;-78
2022/08/21 06:28:41;;;;;;;;;;;;;;;16.48;77.44;100329.66;5033478;28;20256;-79
2022/08/21 06:31:18;;;;;;;;;;;;;;;16.61;76.87;100330.22;5032800;28;20012;-78
2022/08/21 06:33:43;;;;;;;;;;;;;;;16.54;76.96;100333.66;5032862;28;20279;-78
2022/08/21 06:36:09;;;;;;;;;;;;;;;16.65;76.10;100331.06;5014904;28;19917;-77
2022/08/21 06:38:34;;;;;;;;;;;;;;;16.61;76.56;100329.41;5033056;28;19966;-78
2022/08/21 06:40:59;;;;;;;;;;;;;;;16.73;76.10;100337.50;5014974;28;20252;-78
2022/08/21 06:43:25;;;;;;;;;;;;;;;16.69;76.38;100331.16;5032591;28;19967;-78
2022/08/21 06:45:50;;;;;;;;;;;;;;;16.82;75.29;100333.31;5011908;28;19925;-78
2022/08/21 06:48:15;;;;;;;;;;;;;;;16.96;74.65;100335.44;5012951;28;20340;-78
2022/08/21 06:50:41;;;;;;;;;;;;;;;17.03;74.15;100332.81;5013030;28;19913;-79
2022/08/21 06:53:09;;;;;;;;;;;;;;;17.61;71.82;100337.84;5012864;28;19928;-79
2022/08/21 06:55:34;;;;;;;;;;;;;;;18.25;69.96;100345.97;5013359;28;19917;-79
2022/08/21 06:58:00;;;;;;;;;;;;;;;18.57;68.61;100330.47;5013037;28;19967;-80
2022/08/21 07:00:25;;;;;;;;;;;;;;;19.01;65.96;100332.34;5011400;28;20032;-79
2022/08/21 07:02:50;;;;;;;;;;;;;;;19.42;64.81;100338.44;5012694;28;19945;-81
2022/08/21 07:05:16;;;;;;;;;;;;;;;19.65;63.51;100332.63;5012807;28;19978;-80
2022/08/21 07:07:41;;;;;;;;;;;;;;;19.33;64.95;100334.47;5013667;28;19952;-81
2022/08/21 07:10:07;;;;;;;;;;;;;;;19.11;64.52;100336.31;5012913;28;20042;-81
2022/08/21 07:12:32;;;;;;;;;;;;;;;18.79;65.73;100341.66;5012677;28;19924;-81
2022/08/21 07:14:58;;;;;;;;;;;;;;;18.50;66.59;100338.69;5011571;28;19914;-82
2022/08/21 07:17:23;;;;;;;;;;;;;;;18.55;67.35;100329.28;5011721;28;19913;-81
2022/08/21 07:19:49;;;;;;;;;;;;;;;18.46;67.46;100335.09;5012837;28;20047;-81
2022/08/21 07:22:15;;;;;;;;;;;;;;;18.41;67.69;100334.69;5012896;28;20446;-81
2022/08/21 07:24:40;;;;;;;;;;;;;;;18.35;67.57;100331.50;5012433;28;20451;-81
2022/08/21 07:27:05;;;;;;;;;;;;;;;18.37;67.74;100333.88;5012342;28;20016;-80
2022/08/21 07:29:31;;;;;;;;;;;;;;;18.55;67.37;100330.06;5011800;28;19999;-82
2022/08/21 07:31:56;;;;;;;;;;;;;;;18.41;67.39;100332.72;5013221;28;20013;-80
2022/08/21 07:34:21;;;;;;;;;;;;;;;18.52;67.03;100328.06;5012791;28;20004;-80
2022/08/21 07:36:46;;;;;;;;;;;;;;;18.46;67.56;100337.84;5012562;28;19913;-80
2022/08/21 07:39:12;;;;;;;;;;;;;;;18.67;66.98;100331.75;5012505;28;20327;-81
2022/08/21 07:41:37;;;;;;;;;;;;;;;18.73;65.84;100335.72;5012306;28;19913;-80
2022/08/21 07:44:02;;;;;;;;;;;;;;;18.81;66.06;100329.09;5012341;28;19917;-80
2022/08/21 07:46:28;;;;;;;;;;;;;;;19.01;66.06;100326.84;5032392;28;19924;-81
2022/08/21 07:48:53;;;;;;;;;;;;;;;19.09;65.34;100330.41;5032094;28;20051;-81
2022/08/21 07:51:21;;;;;;;;;;;;;;;18.83;65.61;100328.69;5032144;28;19920;-78
2022/08/21 07:53:51;;;;;;;;;;;;;;;18.82;65.67;100336.19;5032249;28;19921;-80
2022/08/21 07:56:16;;;;;;;;;;;;;;;18.87;65.58;100335.81;5032195;28;19921;-81
2022/08/21 07:58:41;;;;;;;;;;;;;;;18.76;66.08;100332.19;5032353;28;19917;-81
2022/08/21 08:01:06;;;;;;;;;;;;;;;18.62;66.30;100332.06;5033292;28;19913;-81
2022/08/21 08:03:32;;;;;;;;;;;;;;;18.47;66.70;100333.13;5017712;28;19984;-79
2022/08/21 08:05:57;;;;;;;;;;;;;;;18.66;66.38;100338.44;5035636;28;19924;-82
2022/08/21 08:08:23;;;;;;;;;;;;;;;18.84;66.20;100322.81;5035456;28;19920;-82
2022/08/21 08:10:49;;;;;;;;;;;;;;;19.09;65.75;100336.72;5035392;28;19917;-80
2022/08/21 08:13:14;;;;;;;;;;;;;;;19.31;62.63;100323.78;5035485;28;19913;-81
2022/08/21 08:15:40;;;;;;;;;;;;;;;19.34;63.02;100336.06;5017926;28;19967;-80
2022/08/21 08:18:05;;;;;;;;;;;;;;;19.16;62.47;100341.50;5035710;28;19917;-81
2022/08/21 08:20:30;;;;;;;;;;;;;;;19.31;61.73;100331.28;5035987;28;19924;-81
2022/08/21 08:22:56;;;;;;;;;;;;;;;19.32;61.43;100324.59;5035494;28;19920;-79
2022/08/21 08:25:22;;;;;;;;;;;;;;;19.23;61.95;100322.19;5035104;28;19920;-82
2022/08/21 08:27:48;;;;;;;;;;;;;;;19.20;61.89;100334.00;5017496;28;20367;-80
2022/08/21 08:30:14;;;;;;;;;;;;;;;19.60;61.29;100333.00;5035019;28;19913;-82
2022/08/21 08:32:40;;;;;;;;;;;;;;;19.58;60.80;100323.53;5035384;28;20029;-81
2022/08/21 08:35:06;;;;;;;;;;;;;;;19.81;60.95;100333.03;5017392;28;20312;-82
2022/08/21 08:37:32;;;;;;;;;;;;;;;19.74;59.81;100326.72;5017478;28;19917;-81
2022/08/21 08:39:57;;;;;;;;;;;;;;;19.72;60.16;100326.31;5035250;28;19967;-83
2022/08/21 08:42:33;;;;;;;;;;;;;;;20.01;60.57;100321.66;5017676;28;19913;-81
2022/08/21 08:45:05;;;;;;;;;;;;;;;20.13;59.42;100326.75;5034500;28;20406;-82
2022/08/21 08:47:32;;;;;;;;;;;;;;;20.01;58.68;100324.41;5035362;28;19956;-82
2022/08/21 08:50:06;;;;;;;;;;;;;;;20.02;58.72;100324.00;5035340;28;19913;-81
2022/08/21 08:52:33;;;;;;;;;;;;;;;20.01;58.95;100330.72;5035372;28;19956;-83
2022/08/21 08:55:04;;;;;;;;;;;;;;;20.17;58.85;100327.56;5035631;28;19959;-84
2022/08/21 08:57:30;;;;;;;;;;;;;;;20.04;57.91;100321.63;5035227;28;19913;-83
2022/08/21 08:59:56;;;;;;;;;;;;;;;20.12;57.94;100320.44;5035174;28;20008;-81
2022/08/21 09:02:23;;;;;;;;;;;;;;;20.09;57.93;100324.00;5035304;28;19921;-83
2022/08/21 09:04:50;;;;;;;;;;;;;;;20.25;57.25;100317.28;5017662;28;20306;-81
2022/08/21 09:07:15;;;;;;;;;;;;;;;20.26;56.94;100310.59;5035525;28;19917;-82
2022/08/21 09:09:55;;;;;;;;;;;;;;;20.31;56.68;100310.97;5019486;28;19917;-82
2022/08/21 09:12:20;;;;;;;;;;;;;;;20.34;56.32;100310.19;5033824;28;20015;-82
2022/08/21 09:15:02;;;;;;;;;;;;;;;20.48;55.08;100309.41;5035365;28;19956;-83
2022/08/21 09:17:37;;;;;;;;;;;;;;;20.71;55.49;100307.00;5035479;28;19978;-84
2022/08/21 09:20:14;;;;;;;;;;;;;;;20.66;55.01;100306.63;5035200;28;19917;-84
2022/08/21 09:23:00;;;;;;;;;;;;;;;20.59;55.23;100303.88;5035495;28;20000;-83
2022/08/21 09:25:27;;;;;;;;;;;;;;;20.51;55.17;100305.88;5034042;28;20368;-82
2022/08/21 09:27:52;;;;;;;;;;;;;;;20.38;55.94;100296.34;5034761;28;19920;-83
2022/08/21 09:30:19;;;;;;;;;;;;;;;20.47;55.23;100307.81;5035173;28;20248;-83
2022/08/21 09:32:44;;;;;;;;;;;;;;;20.43;55.81;100305.06;5035021;28;19920;-83
2022/08/21 09:35:21;;;;;;;;;;;;;;;20.50;55.09;100298.75;5035490;28;19913;-83
2022/08/21 09:37:46;;;;;;;;;;;;;;;20.69;54.79;100294.75;5035239;28;19924;-83
2022/08/21 09:40:20;;;;;;;;;;;;;;;20.84;54.33;100301.06;5035527;28;19959;-83
2022/08/21 09:42:54;;;;;;;;;;;;;;;20.96;54.62;100298.63;5036035;28;19924;-83
2022/08/21 09:45:19;;;;;;;;;;;;;;;20.99;53.65;100299.78;5035862;28;19917;-82
2022/08/21 09:47:45;;;;;;;;;;;;;;;21.00;53.67;100309.69;5036659;28;19920;-83
2022/08/21 09:50:15;;;;;;;;;;;;;;;21.04;54.02;100293.88;5036280;28;19967;-82
2022/08/21 09:52:43;;;;;;;;;;;;;;;21.06;53.92;100296.22;5017653;28;19913;-84
2022/08/21 09:57:38;;;;;;;;;;;;;;;21.24;53.12;100297.75;5019832;28;20012;-83
2022/08/21 09:58:01;;;;;;;;;;;;;;;21.13;53.82;100285.91;5037156;28;19990;-84
2022/08/21 10:00:31;;;;;;;;;;;;;;;21.19;54.12;100294.59;5036548;28;19924;-86
2022/08/21 10:03:10;;;;;;;;;;;;;;;21.16;53.72;100284.31;5038845;28;19967;-84
2022/08/21 10:05:37;;;;;;;;;;;;;;;21.18;53.26;100293.03;5043116;28;19917;-86
2022/08/21 10:08:04;;;;;;;;;;;;;;;21.21;53.61;100283.91;5042705;28;19985;-87
2022/08/21 10:10:30;;;;;;;;;;;;;;;21.24;53.18;100281.16;5041815;28;19913;-89
2022/08/21 10:13:04;;;;;;;;;;;;;;;21.55;53.02;100284.16;5041876;28;19913;-82
2022/08/21 10:15:48;;;;;;;;;;;;;;;21.44;52.50;100283.41;5041798;28;19999;-83
2022/08/21 10:18:24;;;;;;;;;;;;;;;21.23;52.85;100279.53;5041994;28;20287;-82
2022/08/21 10:20:59;;;;;;;;;;;;;;;21.29;52.99;100286.25;5044658;28;19917;-83
2022/08/21 10:23:30;;;;;;;;;;;;;;;21.25;52.43;100281.94;5026561;28;19940;-81
2022/08/21 10:26:05;;;;;;;;;;;;;;;21.36;52.14;100277.13;5046394;28;19923;-84
2022/08/21 10:28:48;;;;;;;;;;;;;;;21.47;51.91;100271.53;5048482;28;19921;-83
2022/08/21 10:31:14;;;;;;;;;;;;;;;21.68;51.50;100284.47;5031856;28;20364;-83
2022/08/21 10:33:39;;;;;;;;;;;;;;;21.73;51.14;100270.97;5048355;28;19920;-84
2022/08/21 10:36:23;;;;;;;;;;;;;;;21.71;51.46;100276.13;5029665;28;20363;-84
2022/08/21 10:39:04;;;;;;;;;;;;;;;21.89;50.67;100267.69;5047726;28;19935;-86
2022/08/21 10:41:41;;;;;;;;;;;;;;;21.92;49.93;100262.09;5040083;28;20295;-85
2022/08/21 10:44:26;;;;;;;;;;;;;;;22.17;50.21;100270.25;5038165;28;19917;-82
2022/08/21 10:47:01;;;;;;;;;;;;;;;22.02;49.46;100268.78;5036975;28;19913;-82
2022/08/21 10:49:45;;;;;;;;;;;;;;;22.19;49.73;100267.06;5037029;28;19917;-83
2022/08/21 10:52:43;;;;;;;;;;;;;;;22.21;49.72;100267.44;5037722;28;19917;-84
2022/08/21 10:55:08;;;;;;;;;;;;;;;22.09;49.63;100274.28;5004811;28;19919;-82
2022/08/21 10:57:40;;;;;;;;;;;;;;;22.10;48.94;100273.09;5037722;28;19944;-84
2022/08/21 11:00:10;;;;;;;;;;;;;;;22.12;48.48;100265.13;5035115;28;19928;-81
2022/08/21 11:02:56;;;;;;;;;;;;;;;22.14;48.73;100275.81;5016003;28;20269;-87
2022/08/21 11:05:31;;;;;;;;;;;;;;;22.25;49.78;100276.53;5015753;28;19920;-83
2022/08/21 11:08:06;;;;;;;;;;;;;;;22.33;48.50;100271.69;5033260;28;19971;-85
2022/08/21 11:10:41;;;;;;;;;;;;;;;22.17;48.94;100269.44;5033230;28;19916;-84
2022/08/21 11:13:13;;;;;;;;;;;;;;;22.29;50.26;100262.63;5033411;28;19916;-82
2022/08/21 11:15:39;;;;;;;;;;;;;;;22.37;49.46;100266.91;5033496;28;20036;-83
2022/08/21 11:18:24;;;;;;;;;;;;;;;22.18;49.48;100271.06;5033043;28;19913;-81
2022/08/21 11:21:08;;;;;;;;;;;;;;;22.09;49.58;100260.41;5032542;28;19913;-81
2022/08/21 11:23:36;;;;;;;;;;;;;;;22.73;49.13;100256.22;5033209;28;19913;-82
2022/08/21 11:26:06;;;;;;;;;;;;;;;22.56;49.90;100262.75;5033042;28;20026;-81
2022/08/21 11:28:35;;;;;;;;;;;;;;;22.50;49.23;100268.72;5033200;28;19917;-80
2022/08/21 11:31:19;;;;;;;;;;;;;;;22.56;48.79;100266.31;5033493;28;19913;-81
2022/08/21 11:33:44;;;;;;;;;;;;;;;22.12;49.01;100259.59;5033366;28;20358;-80
2022/08/21 11:36:29;;;;;;;;;;;;;;;22.03;49.83;100275.09;5035679;28;19920;-81
2022/08/21 11:39:06;;;;;;;;;;;;;;;22.31;49.12;100258.22;5036779;28;20063;-83
2022/08/21 11:41:41;;;;;;;;;;;;;;;22.28;49.11;100266.59;5037060;28;19917;-82
2022/08/21 11:44:34;;;;;;;;;;;;;;;22.29;48.73;100262.63;5037036;28;20264;-82
2022/08/21 11:47:13;;;;;;;;;;;;;;;22.46;49.24;100265.22;5014685;28;19959;-83
2022/08/21 11:49:38;;;;;;;;;;;;;;;22.14;49.15;100265.50;5037155;28;20395;-81
2022/08/21 11:52:22;;;;;;;;;;;;;;;22.18;49.65;100260.75;5036527;28;19913;-82
2022/08/21 11:54:54;;;;;;;;;;;;;;;22.58;48.85;100268.69;5019376;28;19913;-81
2022/08/21 11:57:29;;;;;;;;;;;;;;;22.74;48.23;100280.78;5036571;28;19920;-82
2022/08/21 11:59:57;;;;;;;;;;;;;;;22.37;49.11;100267.69;5036504;28;19925;-82
2022/08/21 12:02:27;;;;;;;;;;;;;;;22.34;49.47;100264.94;5036556;28;20241;-82
2022/08/21 12:04:59;;;;;;;;;;;;;;;23.00;48.84;100262.66;5036245;28;19913;-83
2022/08/21 12:07:36;;;;;;;;;;;;;;;22.97;47.83;100260.72;5036719;28;20361;-84
2022/08/21 12:10:03;;;;;;;;;;;;;;;22.83;47.89;100263.66;5036164;28;19916;-85
2022/08/21 12:12:30;;;;;;;;;;;;;;;22.72;46.63;100255.44;5036412;28;19924;-83
2022/08/21 12:15:17;;;;;;;;;;;;;;;23.25;45.60;100264.34;5036716;28;19913;-83
2022/08/21 12:17:52;;;;;;;;;;;;;;;22.73;47.09;100259.00;5036439;28;19993;-83
2022/08/21 12:20:23;;;;;;;;;;;;;;;22.70;47.42;100254.28;5036621;28;20014;-83
2022/08/21 12:23:11;;;;;;;;;;;;;;;22.87;47.65;100252.53;5036230;28;20379;-80
2022/08/21 12:25:57;;;;;;;;;;;;;;;22.77;46.83;100248.63;5027655;28;19913;-83
2022/08/21 12:28:23;;;;;;;;;;;;;;;23.02;46.85;100249.16;5035622;28;20376;-83
2022/08/21 12:30:49;;;;;;;;;;;;;;;23.14;46.27;100253.34;5035946;28;19917;-83